Time;durP1;ratioP1;P1;durP2;ratioP2;P2;SDS_P1;SDS_P2;PMS_P1;PMS_P2;Temp;Humidity;BMP_temperature;BMP_pressure;BME280_temperature;BME280_humidity;BME280_pressure;Samples;Min_cycle;Max_cycle;Signal;HPM_P1;HPM_P2
2022/06/18 00:00:50;;;;;;;5.60;4.70;;;;;;;;;;5040064;28;20471;-72
2022/06/18 00:03:17;;;;;;;8.20;5.20;;;;;;;;;;5040949;28;20869;-72
2022/06/18 00:05:46;;;;;;;4.63;4.30;;;;;;;;;;5039577;28;20484;-73
2022/06/18 00:08:14;;;;;;;7.03;5.30;;;;;;;;;;5040017;28;20440;-72
2022/06/18 00:10:41;;;;;;;5.23;4.70;;;;;;;;;;5040228;28;21195;-72
2022/06/18 00:16:00;;;;;;;4.73;4.30;;;;;;;;;;5039690;28;20581;-72
2022/06/18 00:18:26;;;;;;;5.33;4.80;;;;;;;;;;5041000;28;20942;-72
2022/06/18 00:20:54;;;;;;;4.43;4.03;;;;;;;;;;5039224;28;20472;-72
2022/06/18 00:23:21;;;;;;;7.10;5.70;;;;;;;;;;5037271;28;20837;-72
2022/06/18 00:25:48;;;;;;;4.80;4.40;;;;;;;;;;5040656;28;20848;-72
2022/06/18 00:28:16;;;;;;;5.32;4.50;;;;;;;;;;5039478;28;20917;-72
2022/06/18 00:30:42;;;;;;;7.20;4.83;;;;;;;;;;5040490;28;20245;-72
2022/06/18 00:33:08;;;;;;;5.53;5.03;;;;;;;;;;5040817;28;20445;-73
2022/06/18 00:35:35;;;;;;;4.90;4.40;;;;;;;;;;5037879;28;20450;-72
2022/06/18 00:38:04;;;;;;;5.60;5.10;;;;;;;;;;5040532;28;20420;-72
2022/06/18 00:40:32;;;;;;;5.37;4.83;;;;;;;;;;5038554;28;20450;-73
2022/06/18 00:43:00;;;;;;;4.57;4.17;;;;;;;;;;5040510;28;20440;-72
2022/06/18 00:45:27;;;;;;;4.53;4.13;;;;;;;;;;5038179;28;20464;-73
2022/06/18 00:47:58;;;;;;;6.50;4.80;;;;;;;;;;5038088;28;20786;-73
2022/06/18 00:50:28;;;;;;;8.27;5.10;;;;;;;;;;5037437;28;20454;-72
2022/06/18 00:52:57;;;;;;;6.93;5.27;;;;;;;;;;5040532;28;20452;-72
2022/06/18 00:55:30;;;;;;;5.70;5.00;;;;;;;;;;5037428;28;20463;-72
2022/06/18 00:57:58;;;;;;;5.43;5.00;;;;;;;;;;5040410;28;20435;-73
2022/06/18 01:00:28;;;;;;;5.53;5.03;;;;;;;;;;5040505;28;20481;-73
2022/06/18 01:02:55;;;;;;;5.17;4.33;;;;;;;;;;5040580;28;20452;-72
2022/06/18 01:05:23;;;;;;;7.67;5.23;;;;;;;;;;5040364;28;20457;-72
2022/06/18 01:07:53;;;;;;;6.80;6.17;;;;;;;;;;5040730;28;20944;-73
2022/06/18 01:10:21;;;;;;;5.73;5.10;;;;;;;;;;5039180;28;20474;-73
2022/06/18 01:12:49;;;;;;;6.30;5.50;;;;;;;;;;5040817;28;20456;-73
2022/06/18 01:15:20;;;;;;;4.90;4.43;;;;;;;;;;5038906;28;20439;-72
2022/06/18 01:17:47;;;;;;;5.30;4.80;;;;;;;;;;5039394;28;20451;-73
2022/06/18 01:20:13;;;;;;;5.63;5.20;;;;;;;;;;5038761;28;20454;-73
2022/06/18 01:22:43;;;;;;;4.70;4.27;;;;;;;;;;5038529;28;20415;-72
2022/06/18 01:25:11;;;;;;;8.37;4.83;;;;;;;;;;5038446;28;20472;-73
2022/06/18 01:27:37;;;;;;;5.80;5.17;;;;;;;;;;5036498;28;20415;-73
2022/06/18 01:30:05;;;;;;;5.83;5.33;;;;;;;;;;5037492;28;20471;-72
2022/06/18 01:32:31;;;;;;;5.53;4.90;;;;;;;;;;5037658;28;20423;-73
2022/06/18 01:34:57;;;;;;;5.80;4.93;;;;;;;;;;5038753;28;20454;-72
2022/06/18 01:37:24;;;;;;;6.10;5.13;;;;;;;;;;5040113;28;20449;-72
2022/06/18 01:39:50;;;;;;;8.30;5.10;;;;;;;;;;5039693;28;21006;-72
2022/06/18 01:42:21;;;;;;;6.80;4.77;;;;;;;;;;5038633;28;20810;-72
2022/06/18 01:44:49;;;;;;;4.67;4.30;;;;;;;;;;5038500;28;20479;-72
2022/06/18 01:47:16;;;;;;;5.50;5.00;;;;;;;;;;5038973;28;20803;-72
2022/06/18 01:49:46;;;;;;;11.33;4.60;;;;;;;;;;5037896;28;20473;-72
2022/06/18 01:52:13;;;;;;;5.93;5.37;;;;;;;;;;5038863;28;20427;-72
2022/06/18 01:54:41;;;;;;;5.37;4.97;;;;;;;;;;5039167;28;20457;-73
2022/06/18 01:57:12;;;;;;;5.63;5.13;;;;;;;;;;5036620;28;20960;-72
2022/06/18 01:59:42;;;;;;;6.50;4.63;;;;;;;;;;5038470;28;20471;-73
2022/06/18 02:02:09;;;;;;;5.53;4.87;;;;;;;;;;5037792;28;20418;-72
2022/06/18 02:04:35;;;;;;;5.70;5.20;;;;;;;;;;5038935;28;20450;-72
2022/06/18 02:07:02;;;;;;;9.40;4.20;;;;;;;;;;5039516;28;20427;-72
2022/06/18 02:09:32;;;;;;;5.53;4.80;;;;;;;;;;5039106;28;20442;-72
2022/06/18 02:12:00;;;;;;;4.97;4.47;;;;;;;;;;5039484;28;20452;-73
2022/06/18 02:14:27;;;;;;;4.80;4.40;;;;;;;;;;5037127;28;20438;-72
2022/06/18 02:16:55;;;;;;;5.20;4.70;;;;;;;;;;5038729;28;20809;-72
2022/06/18 02:19:22;;;;;;;5.97;5.00;;;;;;;;;;5038953;28;20471;-72
2022/06/18 02:21:50;;;;;;;5.80;5.30;;;;;;;;;;5036561;28;20418;-72
2022/06/18 02:24:17;;;;;;;7.67;4.70;;;;;;;;;;5037952;28;20794;-72
2022/06/18 02:26:45;;;;;;;5.47;4.70;;;;;;;;;;5037791;28;20534;-72
2022/06/18 02:29:16;;;;;;;6.17;5.40;;;;;;;;;;5037349;28;20458;-72
2022/06/18 02:31:45;;;;;;;6.20;4.60;;;;;;;;;;5038105;28;20442;-72
2022/06/18 02:34:14;;;;;;;5.57;4.80;;;;;;;;;;5037811;28;20452;-73
2022/06/18 02:36:41;;;;;;;5.33;4.33;;;;;;;;;;5039047;28;20480;-72
2022/06/18 02:39:11;;;;;;;12.40;5.20;;;;;;;;;;5037809;28;20858;-72
2022/06/18 02:41:40;;;;;;;10.37;5.10;;;;;;;;;;5039119;28;20451;-72
2022/06/18 02:44:07;;;;;;;6.57;5.03;;;;;;;;;;5040139;28;20560;-72
2022/06/18 02:46:33;;;;;;;5.50;5.00;;;;;;;;;;5042536;28;20575;-72
2022/06/18 02:49:03;;;;;;;5.03;4.63;;;;;;;;;;5039249;28;20434;-73
2022/06/18 02:51:31;;;;;;;5.10;4.70;;;;;;;;;;5042740;28;20560;-72
2022/06/18 02:53:57;;;;;;;4.57;4.17;;;;;;;;;;5040973;28;20450;-73
2022/06/18 02:56:24;;;;;;;4.80;4.30;;;;;;;;;;5042363;28;20488;-72
2022/06/18 02:58:51;;;;;;;5.20;4.70;;;;;;;;;;5042228;28;20984;-72
2022/06/18 03:01:18;;;;;;;5.57;4.57;;;;;;;;;;5042078;28;20472;-72
2022/06/18 03:03:47;;;;;;;6.27;4.37;;;;;;;;;;5040716;28;20467;-72
2022/06/18 03:06:14;;;;;;;5.50;4.40;;;;;;;;;;5041749;28;20498;-72
2022/06/18 03:08:44;;;;;;;4.63;4.20;;;;;;;;;;5042578;28;20443;-72
2022/06/18 03:14:05;;;;;;;8.27;4.83;;;;;;;;;;4999541;28;20822;-72
2022/06/18 03:16:32;;;;;;;5.40;4.90;;;;;;;;;;5032363;28;20484;-72
2022/06/18 03:18:59;;;;;;;6.23;5.70;;;;;;;;;;5042556;28;20426;-72
2022/06/18 03:21:27;;;;;;;5.57;5.07;;;;;;;;;;5039627;28;20438;-72
2022/06/18 03:23:55;;;;;;;5.43;4.93;;;;;;;;;;5042343;28;20438;-73
2022/06/18 03:26:21;;;;;;;6.40;5.90;;;;;;;;;;5041319;28;20428;-72
2022/06/18 03:28:48;;;;;;;7.20;5.53;;;;;;;;;;5042357;28;20826;-72
2022/06/18 03:31:14;;;;;;;6.43;5.83;;;;;;;;;;5040396;28;20457;-73
2022/06/18 03:33:41;;;;;;;5.40;4.90;;;;;;;;;;5041888;28;20451;-72
2022/06/18 03:36:08;;;;;;;5.87;5.27;;;;;;;;;;5040122;28;20963;-72
2022/06/18 03:38:34;;;;;;;6.27;5.67;;;;;;;;;;5042270;28;20424;-72
2022/06/18 03:41:02;;;;;;;5.70;5.20;;;;;;;;;;5039499;28;20436;-72
2022/06/18 03:43:28;;;;;;;6.27;5.80;;;;;;;;;;5041461;28;20479;-72
2022/06/18 03:45:57;;;;;;;6.20;5.60;;;;;;;;;;5039460;28;20467;-72
2022/06/18 03:48:26;;;;;;;6.60;6.00;;;;;;;;;;5038026;28;20434;-72
2022/06/18 03:50:52;;;;;;;6.57;5.75;;;;;;;;;;5040031;28;20418;-72
2022/06/18 03:53:19;;;;;;;6.70;5.55;;;;;;;;;;5040483;28;20415;-72
2022/06/18 03:55:45;;;;;;;6.55;5.82;;;;;;;;;;5038988;28;20417;-72
2022/06/18 03:58:13;;;;;;;6.90;6.20;;;;;;;;;;5039888;28;20441;-72
2022/06/18 04:00:40;;;;;;;7.43;6.00;;;;;;;;;;5038192;28;20420;-72
2022/06/18 04:03:06;;;;;;;6.90;6.20;;;;;;;;;;5039679;28;20418;-72
2022/06/18 04:05:34;;;;;;;8.43;6.78;;;;;;;;;;5036916;28;20428;-72
2022/06/18 04:08:00;;;;;;;6.90;6.20;;;;;;;;;;5040019;28;20417;-72
2022/06/18 04:10:27;;;;;;;9.02;6.28;;;;;;;;;;5036471;28;20421;-72
2022/06/18 04:12:53;;;;;;;6.97;5.97;;;;;;;;;;5039995;28;20441;-72
2022/06/18 04:15:21;;;;;;;6.60;5.90;;;;;;;;;;5039383;28;20411;-72
2022/06/18 04:17:47;;;;;;;8.50;6.70;;;;;;;;;;5039464;28;20415;-72
2022/06/18 04:20:19;;;;;;;8.85;6.75;;;;;;;;;;5037944;28;20425;-72
2022/06/18 04:22:45;;;;;;;7.15;6.45;;;;;;;;;;5038572;28;20974;-72
2022/06/18 04:25:11;;;;;;;10.50;6.72;;;;;;;;;;5039221;28;20413;-72
2022/06/18 04:27:38;;;;;;;7.50;6.72;;;;;;;;;;5040337;28;20418;-72
2022/06/18 04:30:04;;;;;;;8.20;7.40;;;;;;;;;;5039569;28;20423;-72
2022/06/18 04:32:35;;;;;;;8.43;7.63;;;;;;;;;;5040225;28;20426;-72
2022/06/18 04:35:02;;;;;;;7.50;6.80;;;;;;;;;;5038950;28;20508;-72
2022/06/18 04:37:28;;;;;;;8.63;7.20;;;;;;;;;;5039175;28;20440;-72
2022/06/18 04:39:54;;;;;;;8.27;7.00;;;;;;;;;;5038697;28;20499;-72
2022/06/18 04:42:21;;;;;;;8.73;7.50;;;;;;;;;;5039875;28;20420;-72
2022/06/18 04:44:47;;;;;;;9.02;7.63;;;;;;;;;;5038102;28;20425;-72
2022/06/18 04:47:13;;;;;;;8.65;7.95;;;;;;;;;;5037913;28;20778;-72
2022/06/18 04:49:41;;;;;;;8.70;7.70;;;;;;;;;;5038230;28;20423;-72
2022/06/18 04:52:07;;;;;;;8.93;7.78;;;;;;;;;;5038098;28;20423;-72
2022/06/18 04:54:34;;;;;;;8.65;7.75;;;;;;;;;;5037033;28;20904;-72
2022/06/18 04:57:00;;;;;;;8.70;7.80;;;;;;;;;;5038507;28;20433;-72
2022/06/18 04:59:26;;;;;;;9.23;8.32;;;;;;;;;;5038351;28;20433;-72
2022/06/18 05:01:59;;;;;;;9.20;8.20;;;;;;;;;;5037349;28;20424;-72
2022/06/18 05:04:25;;;;;;;9.38;8.48;;;;;;;;;;5037716;28;20414;-72
2022/06/18 05:06:53;;;;;;;9.85;8.02;;;;;;;;;;5038451;28;20406;-72
2022/06/18 05:09:19;;;;;;;9.73;8.20;;;;;;;;;;5038441;28;20407;-72
2022/06/18 05:11:46;;;;;;;11.13;8.75;;;;;;;;;;5039162;28;20422;-72
2022/06/18 05:14:14;;;;;;;10.60;8.60;;;;;;;;;;5038022;28;20415;-72
2022/06/18 05:16:40;;;;;;;9.87;8.87;;;;;;;;;;5038914;28;20429;-72
2022/06/18 05:19:07;;;;;;;11.95;9.60;;;;;;;;;;5037862;28;20415;-72
2022/06/18 05:21:33;;;;;;;11.13;9.20;;;;;;;;;;5037915;28;20935;-72
2022/06/18 05:24:01;;;;;;;11.45;9.13;;;;;;;;;;5038070;28;20420;-72
2022/06/18 05:26:27;;;;;;;9.85;8.95;;;;;;;;;;5037022;28;20432;-72
2022/06/18 05:28:54;;;;;;;10.43;9.43;;;;;;;;;;5038440;28;20417;-72
2022/06/18 05:31:20;;;;;;;13.48;10.10;;;;;;;;;;5038047;28;20787;-72
2022/06/18 05:33:46;;;;;;;11.20;10.20;;;;;;;;;;5051608;22;20413;-75
2022/06/18 05:36:19;;;;;;;13.37;10.30;;;;;;;;;;5017136;28;20436;-76
2022/06/18 05:38:45;;;;;;;11.25;9.82;;;;;;;;;;5019050;28;20415;-75
2022/06/18 05:41:13;;;;;;;12.85;9.88;;;;;;;;;;5018895;28;20927;-76
2022/06/18 05:43:39;;;;;;;11.82;10.35;;;;;;;;;;5017673;28;20443;-76
2022/06/18 05:46:09;;;;;;;11.88;10.68;;;;;;;;;;5016195;28;20423;-75
2022/06/18 05:48:35;;;;;;;12.20;10.40;;;;;;;;;;5017927;28;20432;-76
2022/06/18 05:51:02;;;;;;;12.68;11.48;;;;;;;;;;5017885;28;20427;-76
2022/06/18 05:53:28;;;;;;;13.48;12.07;;;;;;;;;;5018453;28;20419;-76
2022/06/18 05:55:55;;;;;;;14.10;11.80;;;;;;;;;;5017086;28;20751;-76
2022/06/18 05:58:22;;;;;;;14.63;13.18;;;;;;;;;;5016502;28;20512;-75
2022/06/18 06:00:49;;;;;;;13.68;12.27;;;;;;;;;;5017038;28;20421;-76
2022/06/18 06:03:15;;;;;;;16.13;12.50;;;;;;;;;;5016743;28;20454;-76
2022/06/18 06:05:41;;;;;;;13.50;11.50;;;;;;;;;;5017353;28;20922;-76
2022/06/18 06:08:10;;;;;;;14.05;12.38;;;;;;;;;;5015164;28;20440;-76
2022/06/18 06:13:22;;;;;;;13.82;12.32;;;;;;;;;;5017673;28;21269;-76
2022/06/18 06:15:50;;;;;;;14.38;12.82;;;;;;;;;;5017231;28;20452;-76
2022/06/18 06:18:18;;;;;;;17.02;13.05;;;;;;;;;;5019777;28;20780;-76
2022/06/18 06:20:45;;;;;;;13.40;12.00;;;;;;;;;;5021119;28;20426;-76
2022/06/18 06:23:11;;;;;;;14.13;12.25;;;;;;;;;;5021748;28;20417;-77
2022/06/18 06:25:38;;;;;;;13.90;12.50;;;;;;;;;;5018592;28;20410;-76
2022/06/18 06:28:05;;;;;;;17.00;14.13;;;;;;;;;;5019611;28;20435;-76
2022/06/18 06:30:31;;;;;;;14.40;12.90;;;;;;;;;;5021016;28;20414;-76
2022/06/18 06:32:59;;;;;;;15.70;13.47;;;;;;;;;;5021666;28;20437;-76
2022/06/18 06:35:25;;;;;;;13.80;12.43;;;;;;;;;;5020323;28;20922;-76
2022/06/18 06:37:52;;;;;;;15.50;13.50;;;;;;;;;;5021798;28;21035;-77
2022/06/18 06:40:18;;;;;;;15.00;13.35;;;;;;;;;;5019259;28;20430;-76
2022/06/18 06:42:46;;;;;;;16.15;12.65;;;;;;;;;;5020261;28;20428;-76
2022/06/18 06:45:13;;;;;;;18.98;14.32;;;;;;;;;;5022337;28;20424;-76
2022/06/18 06:47:40;;;;;;;14.95;13.45;;;;;;;;;;5022480;28;20924;-77
2022/06/18 06:50:10;;;;;;;15.20;13.70;;;;;;;;;;5021713;28;20417;-77
2022/06/18 06:52:36;;;;;;;16.75;13.90;;;;;;;;;;5021202;28;20412;-77
2022/06/18 06:57:47;;;;;;;17.55;13.88;;;;;;;;;;5021337;28;20928;-76
2022/06/18 07:00:14;;;;;;;16.90;14.57;;;;;;;;;;5020366;28;20421;-77
2022/06/18 07:02:40;;;;;;;17.00;14.50;;;;;;;;;;5021348;28;20430;-78
2022/06/18 07:05:08;;;;;;;15.73;14.10;;;;;;;;;;5019919;28;20419;-77
2022/06/18 07:07:34;;;;;;;15.60;14.00;;;;;;;;;;5018412;28;20441;-77
2022/06/18 07:10:01;;;;;;;17.63;14.10;;;;;;;;;;5020562;28;20423;-76
2022/06/18 07:12:27;;;;;;;17.52;14.20;;;;;;;;;;5020802;28;20428;-77
2022/06/18 07:14:53;;;;;;;16.73;14.80;;;;;;;;;;5020697;28;20524;-77
2022/06/18 07:17:20;;;;;;;15.98;14.27;;;;;;;;;;5020595;28;20787;-77
2022/06/18 07:19:46;;;;;;;15.10;13.63;;;;;;;;;;5019511;28;20424;-77
2022/06/18 07:22:14;;;;;;;15.65;13.88;;;;;;;;;;5018814;28;20417;-77
2022/06/18 07:24:40;;;;;;;17.02;15.32;;;;;;;;;;5019997;28;20421;-76
2022/06/18 07:27:07;;;;;;;14.32;12.50;;;;;;;;;;5020217;28;20412;-76
2022/06/18 07:29:34;;;;;;;16.23;14.53;;;;;;;;;;5019388;28;20904;-76
2022/06/18 07:32:05;;;;;;;15.63;13.93;;;;;;;;;;5020097;28;20450;-76
2022/06/18 07:34:31;;;;;;;15.52;13.27;;;;;;;;;;5019755;28;20427;-76
2022/06/18 07:36:57;;;;;;;15.73;13.80;;;;;;;;;;5020005;28;20804;-76
2022/06/18 07:39:25;;;;;;;15.70;14.00;;;;;;;;;;5017474;28;20419;-76
2022/06/18 07:41:53;;;;;;;16.48;13.45;;;;;;;;;;5019526;28;20420;-76
2022/06/18 07:44:20;;;;;;;13.93;12.50;;;;;;;;;;5019046;28;20407;-76
2022/06/18 07:46:47;;;;;;;18.83;13.55;;;;;;;;;;5020283;28;20413;-76
2022/06/18 07:49:13;;;;;;;17.33;13.73;;;;;;;;;;5018367;28;20446;-76
2022/06/18 07:51:39;;;;;;;16.10;14.50;;;;;;;;;;5020140;28;20431;-76
2022/06/18 07:54:06;;;;;;;15.55;13.95;;;;;;;;;;5017403;28;20433;-76
2022/06/18 07:56:33;;;;;;;15.95;13.90;;;;;;;;;;5019673;28;20918;-76
2022/06/18 07:59:00;;;;;;;15.23;13.55;;;;;;;;;;5018356;28;20416;-76
2022/06/18 08:01:26;;;;;;;16.00;14.38;;;;;;;;;;5019881;28;20420;-76
2022/06/18 08:03:52;;;;;;;16.73;14.45;;;;;;;;;;5020909;28;20415;-76
2022/06/18 08:06:19;;;;;;;15.98;14.27;;;;;;;;;;5019627;28;20433;-76
2022/06/18 08:08:45;;;;;;;15.45;13.88;;;;;;;;;;5019070;28;20431;-76
2022/06/18 08:11:13;;;;;;;16.20;14.20;;;;;;;;;;5019026;28;20419;-77
2022/06/18 08:13:41;;;;;;;17.20;13.73;;;;;;;;;;5015355;28;20797;-77
2022/06/18 08:16:08;;;;;;;19.52;13.57;;;;;;;;;;5016861;28;20480;-76
2022/06/18 08:18:35;;;;;;;17.20;14.82;;;;;;;;;;5018518;28;20439;-76
2022/06/18 08:21:03;;;;;;;16.60;14.80;;;;;;;;;;5024822;28;20844;-76
2022/06/18 08:23:29;;;;;;;17.08;14.80;;;;;;;;;;5023021;28;20439;-76
2022/06/18 08:25:55;;;;;;;17.85;14.43;;;;;;;;;;5017750;28;20429;-76
2022/06/18 08:28:22;;;;;;;13.30;11.80;;;;;;;;;;5019661;28;20413;-76
2022/06/18 08:30:49;;;;;;;14.43;12.52;;;;;;;;;;5017235;28;21366;-77
2022/06/18 08:33:17;;;;;;;14.88;13.10;;;;;;;;;;5017277;28;20439;-77
2022/06/18 08:35:43;;;;;;;14.65;11.90;;;;;;;;;;5019045;28;20485;-76
2022/06/18 08:38:10;;;;;;;16.00;11.25;;;;;;;;;;5017707;28;20442;-76
2022/06/18 08:40:45;;;;;;;13.30;10.20;;;;;;;;;;5019067;28;20423;-76
2022/06/18 08:43:26;;;;;;;13.60;10.90;;;;;;;;;;5018099;28;20416;-76
2022/06/18 08:45:58;;;;;;;14.00;10.75;;;;;;;;;;5018438;28;20430;-77
2022/06/18 08:48:34;;;;;;;14.30;11.20;;;;;;;;;;5018560;28;20442;-76
2022/06/18 08:51:05;;;;;;;12.70;11.20;;;;;;;;;;5016426;28;20419;-76
2022/06/18 08:53:53;;;;;;;13.65;10.80;;;;;;;;;;5019172;28;20776;-76
2022/06/18 08:56:26;;;;;;;13.20;11.10;;;;;;;;;;5010360;28;20431;-76
2022/06/18 08:58:55;;;;;;;15.80;11.68;;;;;;;;;;5020068;28;20436;-76
2022/06/18 09:01:25;;;;;;;13.60;10.20;;;;;;;;;;5019263;28;20807;-78
2022/06/18 09:03:58;;;;;;;14.73;11.53;;;;;;;;;;5015451;28;20438;-75
2022/06/18 09:06:32;;;;;;;15.07;10.97;;;;;;;;;;5036348;28;20427;-77
2022/06/18 09:09:02;;;;;;;10.98;9.77;;;;;;;;;;5033159;28;20442;-76
2022/06/18 09:11:36;;;;;;;9.27;7.87;;;;;;;;;;5037711;28;20426;-76
2022/06/18 09:14:05;;;;;;;14.70;8.70;;;;;;;;;;5035762;28;20854;-76
2022/06/18 09:16:35;;;;;;;12.85;8.20;;;;;;;;;;5037820;28;20426;-76
2022/06/18 09:19:03;;;;;;;16.50;7.40;;;;;;;;;;5036363;28;20429;-76
2022/06/18 09:21:31;;;;;;;9.20;6.80;;;;;;;;;;5038511;28;20428;-76
2022/06/18 09:24:00;;;;;;;12.63;7.95;;;;;;;;;;5037589;28;20415;-77
2022/06/18 09:26:29;;;;;;;10.32;7.22;;;;;;;;;;5038065;28;20427;-76
2022/06/18 09:29:01;;;;;;;10.20;7.50;;;;;;;;;;5037492;28;20428;-76
2022/06/18 09:31:32;;;;;;;11.88;7.35;;;;;;;;;;5037924;28;20495;-76
2022/06/18 09:34:05;;;;;;;10.88;6.85;;;;;;;;;;5035758;28;21085;-77
2022/06/18 09:36:33;;;;;;;10.30;7.03;;;;;;;;;;5038266;28;20422;-76
2022/06/18 09:39:02;;;;;;;9.38;6.40;;;;;;;;;;5037766;28;20417;-77
2022/06/18 09:41:31;;;;;;;10.07;6.80;;;;;;;;;;5036726;28;21200;-76
2022/06/18 09:44:00;;;;;;;11.43;7.22;;;;;;;;;;5032436;28;20863;-77
2022/06/18 09:46:27;;;;;;;10.40;7.05;;;;;;;;;;5036829;28;20510;-78
2022/06/18 09:48:54;;;;;;;10.43;7.20;;;;;;;;;;5037201;28;20849;-78
2022/06/18 09:51:29;;;;;;;11.43;7.10;;;;;;;;;;5037149;28;20413;-78
2022/06/18 09:53:55;;;;;;;7.50;6.70;;;;;;;;;;5037205;28;20431;-76
2022/06/18 09:56:24;;;;;;;10.75;6.80;;;;;;;;;;5037295;28;20407;-75
2022/06/18 09:58:52;;;;;;;13.55;7.75;;;;;;;;;;5037054;28;20422;-75
2022/06/18 10:01:21;;;;;;;12.00;7.30;;;;;;;;;;5036950;28;20421;-75
2022/06/18 10:09:20;;;;;;;10.70;8.13;;;;;;;;;;5039715;28;20522;-76
2022/06/18 10:11:47;;;;;;;9.37;7.80;;;;;;;;;;5042538;28;20444;-76
2022/06/18 10:14:15;;;;;;;13.50;8.00;;;;;;;;;;5036715;28;20443;-77
2022/06/18 10:16:45;;;;;;;9.07;7.30;;;;;;;;;;5037634;28;20419;-77
2022/06/18 10:19:15;;;;;;;12.55;8.60;;;;;;;;;;5037035;28;20409;-77
2022/06/18 10:21:47;;;;;;;10.23;8.57;;;;;;;;;;5037580;28;20424;-77
2022/06/18 10:24:16;;;;;;;10.77;7.93;;;;;;;;;;5037148;28;20941;-77
2022/06/18 10:26:45;;;;;;;11.88;8.48;;;;;;;;;;5037707;28;20442;-77
2022/06/18 10:29:15;;;;;;;13.95;10.13;;;;;;;;;;5036595;28;20944;-76
2022/06/18 10:31:50;;;;;;;11.05;9.02;;;;;;;;;;5035594;28;20509;-76
2022/06/18 10:34:28;;;;;;;12.38;8.40;;;;;;;;;;5036595;28;20768;-76
2022/06/18 10:36:58;;;;;;;13.00;7.70;;;;;;;;;;5037589;28;20417;-76
2022/06/18 10:39:25;;;;;;;8.57;6.60;;;;;;;;;;5037319;28;20417;-76
2022/06/18 10:42:02;;;;;;;9.98;5.80;;;;;;;;;;5037433;28;20409;-76
2022/06/18 10:44:36;;;;;;;9.02;7.45;;;;;;;;;;5036251;28;20473;-78
2022/06/18 10:47:04;;;;;;;7.15;6.05;;;;;;;;;;5036584;28;20411;-75
2022/06/18 10:49:31;;;;;;;8.57;6.30;;;;;;;;;;5035004;28;20418;-76
2022/06/18 10:52:00;;;;;;;9.82;5.88;;;;;;;;;;5037203;28;20434;-76
2022/06/18 10:54:30;;;;;;;10.60;5.70;;;;;;;;;;5035947;28;20410;-76
2022/06/18 10:56:57;;;;;;;7.38;5.20;;;;;;;;;;5036477;28;20417;-77
2022/06/18 10:59:30;;;;;;;6.72;4.90;;;;;;;;;;5036483;28;20411;-77
2022/06/18 11:02:01;;;;;;;9.15;5.10;;;;;;;;;;5036345;28;20416;-77
2022/06/18 11:04:29;;;;;;;6.15;4.60;;;;;;;;;;5036087;28;22722;-77
2022/06/18 11:06:57;;;;;;;9.90;5.47;;;;;;;;;;5040256;28;20417;-77
2022/06/18 11:09:27;;;;;;;10.55;4.88;;;;;;;;;;5040268;28;20534;-77
2022/06/18 11:11:55;;;;;;;8.25;5.00;;;;;;;;;;5040238;28;20428;-77
2022/06/18 11:14:21;;;;;;;10.95;5.20;;;;;;;;;;5039764;28;20413;-76
2022/06/18 11:16:48;;;;;;;14.30;5.63;;;;;;;;;;5040535;28;20889;-76
2022/06/18 11:19:16;;;;;;;9.02;5.90;;;;;;;;;;5039334;28;20938;-76
2022/06/18 11:21:43;;;;;;;8.85;5.40;;;;;;;;;;5038750;28;20907;-76
2022/06/18 11:24:20;;;;;;;6.90;5.80;;;;;;;;;;5039562;28;20501;-76
2022/06/18 11:26:55;;;;;;;9.13;5.70;;;;;;;;;;5040527;28;20429;-76
2022/06/18 11:29:30;;;;;;;12.80;6.47;;;;;;;;;;5039761;28;21374;-76
2022/06/18 11:31:58;;;;;;;9.68;5.93;;;;;;;;;;5040299;28;20438;-76
2022/06/18 11:34:26;;;;;;;9.75;5.97;;;;;;;;;;5051687;22;20706;-74
2022/06/18 11:36:53;;;;;;;9.80;6.00;;;;;;;;;;5018977;28;20427;-74
2022/06/18 11:39:38;;;;;;;9.88;5.90;;;;;;;;;;5023943;28;20409;-74
2022/06/18 11:42:13;;;;;;;11.10;5.80;;;;;;;;;;5039506;28;20779;-74
2022/06/18 11:44:43;;;;;;;12.95;6.43;;;;;;;;;;5045806;28;20408;-73
2022/06/18 11:47:12;;;;;;;9.55;6.07;;;;;;;;;;5060061;28;20423;-74
2022/06/18 11:49:41;;;;;;;11.73;6.18;;;;;;;;;;5060091;28;20418;-74
2022/06/18 11:52:11;;;;;;;10.02;5.60;;;;;;;;;;5060281;28;20928;-74
2022/06/18 11:54:40;;;;;;;10.00;5.80;;;;;;;;;;5059423;28;20425;-74
2022/06/18 11:57:17;;;;;;;10.98;5.95;;;;;;;;;;5059191;28;20412;-74
2022/06/18 11:59:52;;;;;;;8.23;5.57;;;;;;;;;;5060163;28;20902;-74
2022/06/18 12:02:20;;;;;;;7.97;5.78;;;;;;;;;;5060693;28;20422;-74
2022/06/18 12:04:49;;;;;;;7.40;5.57;;;;;;;;;;5059536;28;20443;-73
2022/06/18 12:07:18;;;;;;;8.48;5.65;;;;;;;;;;5059523;28;20632;-74
2022/06/18 12:09:45;;;;;;;7.85;5.22;;;;;;;;;;5057054;28;20413;-73
2022/06/18 12:12:22;;;;;;;8.65;5.53;;;;;;;;;;5059461;28;20437;-74
2022/06/18 12:14:52;;;;;;;8.70;5.80;;;;;;;;;;5057597;28;20421;-74
2022/06/18 12:17:21;;;;;;;8.57;5.45;;;;;;;;;;5058905;28;20421;-73
2022/06/18 12:19:49;;;;;;;8.98;5.80;;;;;;;;;;5059274;28;20887;-74
2022/06/18 12:22:19;;;;;;;9.15;5.60;;;;;;;;;;5059761;28;20428;-73
2022/06/18 12:24:50;;;;;;;8.00;5.70;;;;;;;;;;5058965;28;20433;-73
2022/06/18 12:27:20;;;;;;;8.63;5.30;;;;;;;;;;5059585;28;21017;-74
2022/06/18 12:29:54;;;;;;;8.18;5.50;;;;;;;;;;5057794;28;20466;-73
2022/06/18 12:32:24;;;;;;;9.20;6.03;;;;;;;;;;5059441;28;20408;-74
2022/06/18 12:34:56;;;;;;;8.50;5.00;;;;;;;;;;5059204;28;20416;-74
2022/06/18 12:37:27;;;;;;;7.43;5.43;;;;;;;;;;5059432;28;20409;-74
2022/06/18 12:39:56;;;;;;;8.67;5.10;;;;;;;;;;5058286;28;20438;-74
2022/06/18 12:42:25;;;;;;;7.28;5.07;;;;;;;;;;5056814;28;20418;-73
2022/06/18 12:44:57;;;;;;;8.70;5.10;;;;;;;;;;5058035;28;20420;-73
2022/06/18 12:47:25;;;;;;;8.65;4.80;;;;;;;;;;5058724;28;20421;-73
2022/06/18 12:49:58;;;;;;;5.60;3.90;;;;;;;;;;5058735;28;20426;-74
2022/06/18 12:52:30;;;;;;;5.82;4.10;;;;;;;;;;5056920;28;20409;-74
2022/06/18 12:55:06;;;;;;;6.93;3.55;;;;;;;;;;5058394;28;20421;-74
2022/06/18 12:57:39;;;;;;;6.63;3.70;;;;;;;;;;5058091;28;20427;-74
2022/06/18 13:00:10;;;;;;;4.53;3.50;;;;;;;;;;5057559;28;20446;-74
2022/06/18 13:02:51;;;;;;;5.87;3.07;;;;;;;;;;5059434;28;20409;-73
2022/06/18 13:05:28;;;;;;;7.25;3.65;;;;;;;;;;5055045;28;20427;-73
2022/06/18 13:07:58;;;;;;;12.00;5.13;;;;;;;;;;5058901;28;20427;-74
2022/06/18 13:10:28;;;;;;;4.68;2.80;;;;;;;;;;5058687;28;20426;-73
2022/06/18 13:13:04;;;;;;;2.58;2.33;;;;;;;;;;5058251;28;20804;-74
2022/06/18 13:15:37;;;;;;;5.20;2.80;;;;;;;;;;5058105;28;20422;-74
2022/06/18 13:18:05;;;;;;;6.00;2.90;;;;;;;;;;5058603;28;20505;-73
2022/06/18 13:20:34;;;;;;;3.40;2.53;;;;;;;;;;5058774;28;20428;-73
2022/06/18 13:28:10;;;;;;;5.60;2.87;;;;;;;;;;5058756;28;20425;-74
2022/06/18 13:28:32;;;;;;;5.47;2.80;;;;;;;;;;5057102;28;20927;-74
2022/06/18 13:31:03;;;;;;;4.53;2.30;;;;;;;;;;5057950;28;20435;-73
2022/06/18 13:33:39;;;;;;;3.90;2.38;;;;;;;;;;5059258;28;20413;-73
2022/06/18 13:36:09;;;;;;;4.72;2.30;;;;;;;;;;5057879;28;20473;-74
2022/06/18 13:38:37;;;;;;;2.23;2.03;;;;;;;;;;5057557;28;20431;-73
2022/06/18 13:41:10;;;;;;;3.28;1.90;;;;;;;;;;5056292;28;20416;-74
2022/06/18 13:43:39;;;;;;;2.75;1.90;;;;;;;;;;5056514;28;20420;-73
2022/06/18 13:46:11;;;;;;;2.50;1.70;;;;;;;;;;5056822;28;20512;-73
2022/06/18 13:48:45;;;;;;;4.10;1.88;;;;;;;;;;5055318;28;20409;-74
2022/06/18 13:51:12;;;;;;;3.40;1.80;;;;;;;;;;5057144;28;20429;-73
2022/06/18 13:53:42;;;;;;;3.08;2.00;;;;;;;;;;5058191;28;20424;-74
2022/06/18 13:56:17;;;;;;;22.52;7.07;;;;;;;;;;5057053;28;20420;-73
2022/06/18 13:58:47;;;;;;;3.15;2.00;;;;;;;;;;5058193;28;20429;-73
2022/06/18 14:01:16;;;;;;;5.17;1.30;;;;;;;;;;5057137;28;20426;-74
2022/06/18 14:03:44;;;;;;;3.75;1.80;;;;;;;;;;5055604;28;20436;-74
2022/06/18 14:06:12;;;;;;;3.67;1.60;;;;;;;;;;5056112;28;20420;-74
2022/06/18 14:08:42;;;;;;;3.15;1.98;;;;;;;;;;5055162;28;20496;-74
2022/06/18 14:11:10;;;;;;;4.22;1.60;;;;;;;;;;5057524;28;20414;-73
2022/06/18 14:13:45;;;;;;;3.40;1.60;;;;;;;;;;5057500;28;20444;-73
2022/06/18 14:16:12;;;;;;;4.70;1.87;;;;;;;;;;5056294;28;20425;-74
2022/06/18 14:18:39;;;;;;;2.97;1.70;;;;;;;;;;5057675;28;20429;-74
2022/06/18 14:21:07;;;;;;;3.17;1.50;;;;;;;;;;5055968;28;20928;-73
2022/06/18 14:23:37;;;;;;;2.27;1.47;;;;;;;;;;5058525;28;20787;-73
2022/06/18 14:26:05;;;;;;;2.50;1.90;;;;;;;;;;5056280;28;20946;-74
2022/06/18 14:28:32;;;;;;;2.90;1.80;;;;;;;;;;5058078;28;20423;-73
2022/06/18 14:31:03;;;;;;;3.63;1.65;;;;;;;;;;5056968;28;20416;-74
2022/06/18 14:33:33;;;;;;;4.53;1.90;;;;;;;;;;5056673;28;20881;-74
2022/06/18 14:36:04;;;;;;;3.60;1.90;;;;;;;;;;5055417;28;20415;-73
2022/06/18 14:38:33;;;;;;;3.90;2.10;;;;;;;;;;5059789;28;20482;-74
2022/06/18 14:43:49;;;;;;;5.15;1.73;;;;;;;;;;5061431;28;20392;-73
2022/06/18 14:46:21;;;;;;;4.40;1.98;;;;;;;;;;5060719;28;20439;-74
2022/06/18 14:49:03;;;;;;;2.88;1.63;;;;;;;;;;5061563;28;20424;-73
2022/06/18 14:51:42;;;;;;;2.80;1.80;;;;;;;;;;5060695;28;20916;-74
2022/06/18 14:54:28;;;;;;;5.10;2.00;;;;;;;;;;5059614;28;20423;-73
2022/06/18 14:57:14;;;;;;;2.85;1.50;;;;;;;;;;5061073;28;20439;-74
2022/06/18 14:59:47;;;;;;;3.35;1.90;;;;;;;;;;5060052;28;20491;-74
2022/06/18 15:02:17;;;;;;;4.90;2.03;;;;;;;;;;5060896;28;20927;-73
2022/06/18 15:04:47;;;;;;;5.57;1.40;;;;;;;;;;5061242;28;20451;-74
2022/06/18 15:07:15;;;;;;;3.42;1.75;;;;;;;;;;5060567;28;20443;-74